createdAt,value
2022-08-20T00:02:20.049Z,5.05
2022-08-20T00:04:48.925Z,6.85
2022-08-20T00:07:17.800Z,6.63
2022-08-20T00:09:46.689Z,8.45
2022-08-20T00:12:17.733Z,6.68
2022-08-20T00:14:46.671Z,9.32
2022-08-20T00:17:16.893Z,7.03
2022-08-20T00:19:46.519Z,8.00
2022-08-20T00:22:15.283Z,7.57
2022-08-20T00:24:44.239Z,8.70
2022-08-20T00:27:13.125Z,7.38
2022-08-20T00:29:42.961Z,9.32
2022-08-20T00:32:11.699Z,5.15
2022-08-20T00:34:42.557Z,8.18
2022-08-20T00:37:11.392Z,8.60
2022-08-20T00:39:40.481Z,8.77
2022-08-20T00:42:09.801Z,7.40
2022-08-20T00:44:44.912Z,7.68
2022-08-20T00:47:13.775Z,7.05
2022-08-20T00:49:45.641Z,7.38
2022-08-20T00:52:18.748Z,7.10
2022-08-20T00:54:51.097Z,8.52
2022-08-20T00:57:24.046Z,8.00
2022-08-20T00:59:53.661Z,5.88
2022-08-20T01:02:25.467Z,9.30
2022-08-20T01:04:56.848Z,11.52
2022-08-20T01:07:32.580Z,8.82
2022-08-20T01:10:02.086Z,6.40
2022-08-20T01:12:32.486Z,7.57
2022-08-20T01:15:03.908Z,9.07
2022-08-20T01:17:37.027Z,10.73
2022-08-20T01:20:12.983Z,8.18
2022-08-20T01:23:03.150Z,10.63
2022-08-20T01:25:42.331Z,7.32
2022-08-20T01:28:12.579Z,6.75
2022-08-20T01:30:41.917Z,7.40
2022-08-20T01:33:11.376Z,8.52
2022-08-20T01:35:42.725Z,6.50
2022-08-20T01:38:12.852Z,5.78
2022-08-20T01:41:19.273Z,8.82
2022-08-20T01:43:58.569Z,6.47
2022-08-20T01:46:31.030Z,8.27
2022-08-20T01:49:01.490Z,9.00
2022-08-20T01:51:31.704Z,5.78
2022-08-20T01:54:00.838Z,7.18
2022-08-20T01:56:32.991Z,7.00
2022-08-20T01:59:05.426Z,5.47
2022-08-20T02:01:46.368Z,6.30
2022-08-20T02:04:18.213Z,6.85
2022-08-20T02:06:56.476Z,5.97
2022-08-20T02:09:27.764Z,6.03
2022-08-20T02:11:58.921Z,4.68
2022-08-20T02:14:28.502Z,5.40
2022-08-20T02:16:58.680Z,6.80
2022-08-20T02:19:32.844Z,5.88
2022-08-20T02:22:06.477Z,7.80
2022-08-20T02:24:35.566Z,7.15
2022-08-20T02:27:05.893Z,7.00
2022-08-20T02:29:35.032Z,6.75
2022-08-20T02:32:24.984Z,6.90
2022-08-20T02:34:52.663Z,7.15
2022-08-20T02:37:21.508Z,6.80
2022-08-20T02:39:50.250Z,6.35
2022-08-20T02:42:20.702Z,6.63
2022-08-20T02:44:49.478Z,6.13
2022-08-20T02:47:18.282Z,6.88
2022-08-20T02:49:47.038Z,6.65
2022-08-20T02:52:15.802Z,5.50
2022-08-20T02:54:44.746Z,6.53
2022-08-20T02:57:14.895Z,6.60
2022-08-20T02:59:45.656Z,5.65
2022-08-20T03:02:14.910Z,7.60
2022-08-20T03:04:43.973Z,6.47
2022-08-20T03:07:13.194Z,8.10
2022-08-20T03:09:42.249Z,4.53
2022-08-20T03:12:11.083Z,7.15
2022-08-20T03:14:39.971Z,6.05
2022-08-20T03:17:10.190Z,5.78
2022-08-20T03:19:38.948Z,5.57
2022-08-20T03:22:07.630Z,5.97
2022-08-20T03:24:36.453Z,7.80
2022-08-20T03:27:05.673Z,7.22
2022-08-20T03:29:36.034Z,10.10
2022-08-20T03:32:07.779Z,10.18
2022-08-20T03:34:38.013Z,5.70
2022-08-20T03:37:06.884Z,7.00
2022-08-20T03:39:35.685Z,6.95
2022-08-20T03:42:04.881Z,7.35
2022-08-20T03:44:34.249Z,5.80
2022-08-20T03:47:07.633Z,7.65
2022-08-20T03:49:37.735Z,5.40
2022-08-20T03:52:08.235Z,7.70
2022-08-20T03:54:37.074Z,5.35
2022-08-20T03:57:12.461Z,7.78
2022-08-20T03:59:42.573Z,5.95
2022-08-20T04:02:11.691Z,8.52
2022-08-20T04:04:43.693Z,6.68
2022-08-20T04:07:14.243Z,6.43
2022-08-20T04:09:43.736Z,5.95
2022-08-20T04:12:13.742Z,6.90
2022-08-20T04:14:42.369Z,6.00
2022-08-20T04:17:14.230Z,7.82
2022-08-20T04:19:46.063Z,8.07
2022-08-20T04:22:15.533Z,7.72
2022-08-20T04:24:45.527Z,7.20
2022-08-20T04:27:15.005Z,6.07
2022-08-20T04:29:44.784Z,6.63
2022-08-20T04:32:14.090Z,6.65
2022-08-20T04:34:48.096Z,6.65
2022-08-20T04:37:21.199Z,7.22
2022-08-20T04:40:10.216Z,7.25
2022-08-20T04:42:40.120Z,6.03
2022-08-20T04:47:41.783Z,7.85
2022-08-20T04:50:13.848Z,6.85
2022-08-20T04:52:42.725Z,10.93
2022-08-20T04:55:11.746Z,6.38
2022-08-20T04:57:41.220Z,8.02
2022-08-20T05:00:14.298Z,7.90
2022-08-20T05:02:43.623Z,9.10
2022-08-20T05:05:14.840Z,6.50
2022-08-20T05:07:46.928Z,6.57
2022-08-20T05:10:18.679Z,7.50
2022-08-20T05:12:55.634Z,6.78
2022-08-20T05:15:29.451Z,6.68
2022-08-20T05:18:02.618Z,6.40
2022-08-20T05:20:34.948Z,8.05
2022-08-20T05:23:04.351Z,8.67
2022-08-20T05:25:33.368Z,6.18
2022-08-20T05:28:09.435Z,6.05
2022-08-20T05:30:38.999Z,35.75
2022-08-20T05:33:10.463Z,24.70
2022-08-20T05:35:42.136Z,15.43
2022-08-20T05:38:14.973Z,6.55
2022-08-20T05:40:44.161Z,5.75
2022-08-20T05:43:14.038Z,9.38
2022-08-20T05:45:44.127Z,9.05
2022-08-20T05:48:16.154Z,6.18
2022-08-20T05:50:52.258Z,6.65
2022-08-20T05:53:22.274Z,8.15
2022-08-20T05:55:52.287Z,7.05
2022-08-20T05:58:25.832Z,5.68
2022-08-20T06:00:56.865Z,7.78
2022-08-20T06:03:43.889Z,5.60
2022-08-20T06:06:18.254Z,6.97
2022-08-20T06:09:02.835Z,6.15
2022-08-20T06:11:36.442Z,4.90
2022-08-20T06:14:06.682Z,5.25
2022-08-20T06:16:37.181Z,5.78
2022-08-20T06:19:11.273Z,6.20
2022-08-20T06:21:42.311Z,5.70
2022-08-20T06:24:11.420Z,4.93
2022-08-20T06:26:40.841Z,5.72
2022-08-20T06:29:09.747Z,6.63
2022-08-20T06:31:40.039Z,6.25
2022-08-20T06:34:08.873Z,5.68
2022-08-20T06:36:38.850Z,5.53
2022-08-20T06:39:09.035Z,4.75
2022-08-20T06:41:37.711Z,6.40
2022-08-20T06:44:07.915Z,4.65
2022-08-20T06:46:37.441Z,5.07
2022-08-20T06:49:09.262Z,5.20
2022-08-20T06:51:38.595Z,4.30
2022-08-20T06:54:14.173Z,4.57
2022-08-20T06:56:44.210Z,3.40
2022-08-20T06:59:13.037Z,5.43
2022-08-20T07:01:44.009Z,6.18
2022-08-20T07:04:13.007Z,3.80
2022-08-20T07:06:41.827Z,4.78
2022-08-20T07:09:12.140Z,3.97
2022-08-20T07:11:41.465Z,6.63
2022-08-20T07:14:10.181Z,4.95
2022-08-20T07:16:39.068Z,4.53
2022-08-20T07:19:08.464Z,4.95
2022-08-20T07:21:38.054Z,4.50
2022-08-20T07:24:07.527Z,5.28
2022-08-20T07:26:37.637Z,19.60
2022-08-20T07:29:06.391Z,3.92
2022-08-20T07:31:52.531Z,4.75
2022-08-20T07:34:21.908Z,3.10
2022-08-20T07:36:50.957Z,3.28
2022-08-20T07:39:20.427Z,4.38
2022-08-20T07:42:03.239Z,3.28
2022-08-20T07:44:32.164Z,5.38
2022-08-20T07:47:01.027Z,2.60
2022-08-20T07:49:30.076Z,3.05
2022-08-20T07:51:59.338Z,2.38
2022-08-20T07:54:30.545Z,3.88
2022-08-20T07:57:03.752Z,23.40
2022-08-20T07:59:32.966Z,6.80
2022-08-20T08:02:01.900Z,3.35
2022-08-20T08:04:32.738Z,3.95
2022-08-20T08:07:03.535Z,5.50
2022-08-20T08:09:35.270Z,4.15
2022-08-20T08:12:05.729Z,3.70
2022-08-20T08:14:36.005Z,5.20
2022-08-20T08:17:07.354Z,4.25
2022-08-20T08:19:40.591Z,3.70
2022-08-20T08:22:12.747Z,5.00
2022-08-20T08:24:57.117Z,2.67
2022-08-20T08:27:29.365Z,4.15
2022-08-20T08:29:58.464Z,3.28
2022-08-20T08:32:28.297Z,4.88
2022-08-20T08:34:57.106Z,3.45
2022-08-20T08:37:30.097Z,3.35
2022-08-20T08:40:00.435Z,2.85
2022-08-20T08:42:43.432Z,3.03
2022-08-20T08:45:16.142Z,2.10
2022-08-20T08:47:46.036Z,3.80
2022-08-20T08:50:43.767Z,2.05
2022-08-20T08:53:20.409Z,2.13
2022-08-20T08:55:49.806Z,2.58
2022-08-20T08:58:20.277Z,4.13
2022-08-20T09:00:57.655Z,5.78
2022-08-20T09:03:34.447Z,5.88
2022-08-20T09:06:03.681Z,1.95
2022-08-20T09:08:37.307Z,2.22
2022-08-20T09:11:09.110Z,4.88
2022-08-20T09:13:39.295Z,6.57
2022-08-20T09:16:10.743Z,2.03
2022-08-20T09:18:40.615Z,3.15
2022-08-20T09:21:10.818Z,1.77
2022-08-20T09:23:39.878Z,2.30
2022-08-20T09:26:08.904Z,2.33
2022-08-20T09:28:39.291Z,3.05
2022-08-20T09:31:08.142Z,2.38
2022-08-20T09:33:37.016Z,3.53
2022-08-20T09:36:29.254Z,2.40
2022-08-20T09:38:54.841Z,3.15
2022-08-20T09:41:23.730Z,2.17
2022-08-20T09:43:54.597Z,2.50
2022-08-20T09:46:27.185Z,2.60
2022-08-20T09:48:56.699Z,3.83
2022-08-20T09:51:25.805Z,9.88
2022-08-20T09:53:54.618Z,2.47
2022-08-20T09:56:25.602Z,3.15
2022-08-20T09:58:59.923Z,3.10
2022-08-20T10:01:33.302Z,2.95
2022-08-20T10:04:02.198Z,3.85
2022-08-20T10:06:35.798Z,2.60
2022-08-20T10:09:06.623Z,2.45
2022-08-20T10:11:35.297Z,4.28
2022-08-20T10:14:05.672Z,2.17
2022-08-20T10:16:34.385Z,2.35
2022-08-20T10:19:03.927Z,3.15
2022-08-20T10:21:38.445Z,2.50
2022-08-20T10:24:07.893Z,3.20
2022-08-20T10:26:39.073Z,2.53
2022-08-20T10:29:09.259Z,2.70
2022-08-20T10:31:38.039Z,2.55
2022-08-20T10:34:06.938Z,3.55
2022-08-20T10:36:35.757Z,2.38
2022-08-20T10:39:05.259Z,5.65
2022-08-20T10:41:38.346Z,2.65
2022-08-20T10:44:09.636Z,2.65
2022-08-20T10:46:38.519Z,2.10
2022-08-20T10:49:07.254Z,3.13
2022-08-20T10:51:36.052Z,3.03
2022-08-20T10:54:05.424Z,8.13
2022-08-20T10:56:41.705Z,3.30
2022-08-20T10:59:11.851Z,2.47
2022-08-20T11:01:40.924Z,2.88
2022-08-20T11:04:09.797Z,4.30
2022-08-20T11:06:38.453Z,3.50
2022-08-20T11:09:07.342Z,5.05
2022-08-20T11:11:38.832Z,3.63
2022-08-20T11:14:07.655Z,3.42
2022-08-20T11:16:37.805Z,4.57
2022-08-20T11:19:06.682Z,6.63
2022-08-20T11:21:35.698Z,4.57
2022-08-20T11:24:05.177Z,4.40
2022-08-20T11:26:34.064Z,4.63
2022-08-20T11:29:02.806Z,5.97
2022-08-20T11:31:31.488Z,3.30
2022-08-20T11:34:01.686Z,5.38
2022-08-20T11:36:30.450Z,3.70
2022-08-20T11:38:59.248Z,3.50
2022-08-20T11:41:28.044Z,3.47
2022-08-20T11:44:19.922Z,5.03
2022-08-20T11:46:45.679Z,6.20
2022-08-20T11:49:15.744Z,3.00
2022-08-20T11:51:49.449Z,4.80
2022-08-20T11:54:18.950Z,3.50
2022-08-20T11:56:48.456Z,3.10
2022-08-20T11:59:18.532Z,3.08
2022-08-20T12:02:03.339Z,2.58
2022-08-20T12:04:35.354Z,3.45
2022-08-20T12:07:11.887Z,3.95
2022-08-20T12:09:41.933Z,3.17
2022-08-20T12:12:22.405Z,3.70
2022-08-20T12:14:52.070Z,6.30
2022-08-20T12:17:24.066Z,3.65
2022-08-20T12:19:56.754Z,4.05
2022-08-20T12:22:26.319Z,4.32
2022-08-20T12:24:55.633Z,4.22
2022-08-20T12:27:27.442Z,2.72
2022-08-20T12:29:58.151Z,4.53
2022-08-20T12:32:28.732Z,3.75
2022-08-20T12:34:59.445Z,5.63
2022-08-20T12:37:31.242Z,4.13
2022-08-20T12:40:02.169Z,4.50
2022-08-20T12:42:31.530Z,4.13
2022-08-20T12:45:00.902Z,3.20
2022-08-20T12:47:33.071Z,3.67
2022-08-20T12:50:05.373Z,4.47
2022-08-20T12:52:35.134Z,2.97
2022-08-20T12:55:05.482Z,4.90
2022-08-20T12:57:36.571Z,6.53
2022-08-20T13:00:10.603Z,4.63
2022-08-20T13:02:41.306Z,3.60
2022-08-20T13:05:14.148Z,3.65
2022-08-20T13:10:16.573Z,3.88
2022-08-20T13:12:45.322Z,4.55
2022-08-20T13:15:14.855Z,4.28
2022-08-20T13:17:43.820Z,3.97
2022-08-20T13:20:16.007Z,3.75
2022-08-20T13:22:45.149Z,3.33
2022-08-20T13:25:14.673Z,3.80
2022-08-20T13:27:45.132Z,5.60
2022-08-20T13:30:18.411Z,5.70
2022-08-20T13:32:47.751Z,4.55
2022-08-20T13:35:19.459Z,4.18
2022-08-20T13:37:49.982Z,4.32
2022-08-20T13:40:19.561Z,28.25
2022-08-20T13:42:48.381Z,4.72
2022-08-20T13:45:17.225Z,5.45
2022-08-20T13:47:46.117Z,4.95
2022-08-20T13:50:19.823Z,3.55
2022-08-20T13:52:49.160Z,4.03
2022-08-20T13:55:20.615Z,5.63
2022-08-20T13:57:50.368Z,4.72
2022-08-20T14:00:26.365Z,3.83
2022-08-20T14:03:01.297Z,2.92
2022-08-20T14:05:32.483Z,3.13
2022-08-20T14:08:08.495Z,6.07
2022-08-20T14:10:37.704Z,3.58
2022-08-20T14:13:08.899Z,3.30
2022-08-20T14:15:39.614Z,3.20
2022-08-20T14:18:08.578Z,3.10
2022-08-20T14:20:38.949Z,3.83
2022-08-20T14:23:07.791Z,4.55
2022-08-20T14:25:36.897Z,4.75
2022-08-20T14:28:13.093Z,7.10
2022-08-20T14:30:42.646Z,3.22
2022-08-20T14:33:11.589Z,3.75
2022-08-20T14:35:42.140Z,4.93
2022-08-20T14:38:11.184Z,4.18
2022-08-20T14:40:40.157Z,4.78
2022-08-20T14:43:09.156Z,5.35
2022-08-20T14:45:38.380Z,4.28
2022-08-20T14:48:08.836Z,3.67
2022-08-20T14:50:38.488Z,3.13
2022-08-20T14:53:09.016Z,3.60
2022-08-20T14:55:38.765Z,4.07
2022-08-20T14:58:08.778Z,5.03
2022-08-20T15:00:37.944Z,5.70
2022-08-20T15:03:06.869Z,6.05
2022-08-20T15:05:39.540Z,5.40
2022-08-20T15:08:11.002Z,5.85
2022-08-20T15:10:40.934Z,6.63
2022-08-20T15:13:09.973Z,4.88
2022-08-20T15:15:39.564Z,4.32
2022-08-20T15:18:09.088Z,6.43
2022-08-20T15:20:38.511Z,4.07
2022-08-20T15:23:07.851Z,4.57
2022-08-20T15:25:38.509Z,6.80
2022-08-20T15:28:10.402Z,5.40
2022-08-20T15:30:42.668Z,4.50
2022-08-20T15:33:12.235Z,4.15
2022-08-20T15:35:41.183Z,4.75
2022-08-20T15:38:09.878Z,5.63
2022-08-20T15:40:40.351Z,6.18
2022-08-20T15:43:09.235Z,6.53
2022-08-20T15:45:38.121Z,12.13
2022-08-20T15:48:14.323Z,11.73
2022-08-20T15:51:01.831Z,17.80
2022-08-20T15:53:35.803Z,15.60
2022-08-20T15:56:25.239Z,18.63
2022-08-20T15:59:01.933Z,15.90
2022-08-20T16:01:38.514Z,21.42
2022-08-20T16:04:24.803Z,18.45
2022-08-20T16:06:58.203Z,21.77
2022-08-20T16:09:43.628Z,18.92
2022-08-20T16:12:21.344Z,23.90
2022-08-20T16:15:03.236Z,21.92
2022-08-20T16:17:36.057Z,22.17
2022-08-20T16:20:11.661Z,21.52
2022-08-20T16:22:44.426Z,24.00
2022-08-20T16:25:14.773Z,20.98
2022-08-20T16:27:52.497Z,20.70
2022-08-20T16:30:31.428Z,20.23
2022-08-20T16:33:05.074Z,24.83
2022-08-20T16:35:37.049Z,24.02
2022-08-20T16:38:21.091Z,23.92
2022-08-20T16:40:56.649Z,21.98
2022-08-20T16:43:33.629Z,20.83
2022-08-20T16:46:04.975Z,26.02
2022-08-20T16:48:38.306Z,27.80
2022-08-20T16:51:13.010Z,25.85
2022-08-20T16:53:42.027Z,28.38
2022-08-20T16:56:10.895Z,24.95
2022-08-20T16:58:45.193Z,28.65
2022-08-20T17:01:16.255Z,25.50
2022-08-20T17:03:50.913Z,30.85
2022-08-20T17:06:28.012Z,28.88
2022-08-20T17:08:56.975Z,29.48
2022-08-20T17:11:32.082Z,28.95
2022-08-20T17:14:12.748Z,25.13
2022-08-20T17:16:46.801Z,25.52
2022-08-20T17:19:27.131Z,24.63
2022-08-20T17:21:56.356Z,22.00
2022-08-20T17:24:29.348Z,20.88
2022-08-20T17:27:00.748Z,23.27
2022-08-20T17:29:32.981Z,29.52
2022-08-20T17:32:10.862Z,27.02
2022-08-20T17:34:46.178Z,25.45
2022-08-20T17:37:23.342Z,26.50
2022-08-20T17:40:09.906Z,26.20
2022-08-20T17:42:49.084Z,32.80
2022-08-20T17:45:25.486Z,26.88
2022-08-20T17:47:58.603Z,31.30
2022-08-20T17:53:07.217Z,30.30
2022-08-20T17:55:37.860Z,26.70
2022-08-20T17:58:13.422Z,25.30
2022-08-20T18:00:45.070Z,29.33
2022-08-20T18:03:23.423Z,28.75
2022-08-20T18:05:58.474Z,28.75
2022-08-20T18:08:36.667Z,29.52
2022-08-20T18:11:15.137Z,26.15
2022-08-20T18:14:10.598Z,24.60
2022-08-20T18:16:55.455Z,24.98
2022-08-20T18:19:53.062Z,25.65
2022-08-20T18:22:25.909Z,21.35
2022-08-20T18:25:02.791Z,22.50
2022-08-20T18:27:41.300Z,22.88
2022-08-20T18:30:18.841Z,28.05
2022-08-20T18:32:52.118Z,27.13
2022-08-20T18:35:25.226Z,26.45
2022-08-20T18:40:33.485Z,23.30
2022-08-20T18:43:14.004Z,26.48
2022-08-20T18:45:43.426Z,29.17
2022-08-20T18:48:22.551Z,27.60
2022-08-20T18:50:55.233Z,24.50
2022-08-20T18:53:33.921Z,28.83
2022-08-20T18:56:06.892Z,30.73
2022-08-20T18:58:55.029Z,29.45
2022-08-20T19:01:24.201Z,43.72
2022-08-20T19:03:58.213Z,23.60
2022-08-20T19:06:40.754Z,24.48
2022-08-20T19:09:16.095Z,26.45
2022-08-20T19:12:05.981Z,21.38
2022-08-20T19:14:51.068Z,26.58
2022-08-20T19:17:29.793Z,24.40
2022-08-20T19:20:09.237Z,24.83
2022-08-20T19:22:41.166Z,23.30
2022-08-20T19:25:21.261Z,30.33
2022-08-20T19:27:50.265Z,25.35
2022-08-20T19:30:33.348Z,26.42
2022-08-20T19:33:03.172Z,21.80
2022-08-20T19:35:34.095Z,25.83
2022-08-20T19:38:03.486Z,23.45
2022-08-20T19:40:39.143Z,35.90
2022-08-20T19:43:16.148Z,25.20
2022-08-20T19:45:48.399Z,20.30
2022-08-20T19:48:37.295Z,25.02
2022-08-20T19:51:15.584Z,28.40
2022-08-20T19:53:47.814Z,25.27
2022-08-20T19:56:19.722Z,28.63
2022-08-20T19:59:01.498Z,35.55
2022-08-20T20:01:30.760Z,37.83
2022-08-20T20:04:03.479Z,23.85
2022-08-20T20:06:38.149Z,38.13
2022-08-20T20:09:14.727Z,21.40
2022-08-20T20:11:47.608Z,26.10
2022-08-20T20:14:18.767Z,25.77
2022-08-20T20:16:51.223Z,27.77
2022-08-20T20:19:26.670Z,27.97
2022-08-20T20:22:20.257Z,22.52
2022-08-20T20:25:00.006Z,23.35
2022-08-20T20:27:29.275Z,28.85
2022-08-20T20:30:02.824Z,31.52
2022-08-20T20:32:33.948Z,24.88
2022-08-20T20:35:06.979Z,23.23
2022-08-20T20:37:50.000Z,27.48
2022-08-20T20:40:26.618Z,27.60
2022-08-20T20:43:02.733Z,22.67
2022-08-20T20:45:35.778Z,28.50
2022-08-20T20:48:18.342Z,59.55
2022-08-20T20:50:49.246Z,27.87
2022-08-20T20:53:50.890Z,29.67
2022-08-20T20:56:31.648Z,25.40
2022-08-20T20:59:05.515Z,33.58
2022-08-20T21:01:49.364Z,31.73
2022-08-20T21:04:20.328Z,26.50
2022-08-20T21:06:49.578Z,27.20
2022-08-20T21:09:21.276Z,26.63
2022-08-20T21:11:50.853Z,23.02
2022-08-20T21:14:19.986Z,29.85
2022-08-20T21:16:49.161Z,32.50
2022-08-20T21:19:19.055Z,26.25
2022-08-20T21:21:48.059Z,31.27
2022-08-20T21:24:18.299Z,27.65
2022-08-20T21:26:49.567Z,29.67
2022-08-20T21:29:26.432Z,29.90
2022-08-20T21:31:59.158Z,31.65
2022-08-20T21:34:28.193Z,25.30
2022-08-20T21:36:58.016Z,20.70
2022-08-20T21:39:28.234Z,27.13
2022-08-20T21:42:02.671Z,34.10
2022-08-20T21:44:33.511Z,24.95
2022-08-20T21:47:02.936Z,23.08
2022-08-20T21:49:33.059Z,28.83
2022-08-20T21:52:02.012Z,33.70
2022-08-20T21:54:31.032Z,28.20
2022-08-20T21:57:06.081Z,27.75
2022-08-20T21:59:37.821Z,29.25
2022-08-20T22:02:08.792Z,25.95
2022-08-20T22:04:38.248Z,34.17
2022-08-20T22:07:07.142Z,23.02
2022-08-20T22:09:36.325Z,24.40
2022-08-20T22:12:08.377Z,33.25
2022-08-20T22:14:37.075Z,21.73
2022-08-20T22:17:06.175Z,25.30
2022-08-20T22:19:35.172Z,20.77
2022-08-20T22:22:04.804Z,35.60
2022-08-20T22:24:33.775Z,31.70
2022-08-20T22:27:03.021Z,29.23
2022-08-20T22:29:33.545Z,26.27
2022-08-20T22:32:02.423Z,24.98
2022-08-20T22:34:33.835Z,31.98
2022-08-20T22:37:03.967Z,26.58
2022-08-20T22:39:33.232Z,24.75
2022-08-20T22:42:02.003Z,31.90
2022-08-20T22:44:30.678Z,24.10
2022-08-20T22:47:05.739Z,30.10
2022-08-20T22:49:36.909Z,31.90
2022-08-20T22:52:06.182Z,31.20
2022-08-20T22:54:37.014Z,24.75
2022-08-20T22:57:05.992Z,33.25
2022-08-20T22:59:45.907Z,32.70
2022-08-20T23:02:25.119Z,26.30
2022-08-20T23:04:53.876Z,33.58
2022-08-20T23:07:23.115Z,24.60
2022-08-20T23:09:54.618Z,31.35
2022-08-20T23:12:23.426Z,25.20
2022-08-20T23:14:52.803Z,24.88
2022-08-20T23:17:23.400Z,28.58
2022-08-20T23:19:53.072Z,26.42
2022-08-20T23:22:21.900Z,26.52
2022-08-20T23:24:50.942Z,27.23
2022-08-20T23:27:22.065Z,18.52
2022-08-20T23:29:50.810Z,27.92
2022-08-20T23:32:19.740Z,26.45
2022-08-20T23:34:50.117Z,25.65
2022-08-20T23:37:19.929Z,24.25
2022-08-20T23:39:50.119Z,23.83
2022-08-20T23:42:19.541Z,28.17
2022-08-20T23:44:48.327Z,29.25
2022-08-20T23:47:21.184Z,23.13
2022-08-20T23:49:51.908Z,25.98
2022-08-20T23:52:20.938Z,25.60
2022-08-20T23:54:49.812Z,28.15
2022-08-20T23:57:21.008Z,16.27
2022-08-20T23:59:52.886Z,26.48
